Time;durP1;ratioP1;P1;durP2;ratioP2;P2;SDS_P1;SDS_P2;PMS_P1;PMS_P2;Temp;Humidity;BMP_temperature;BMP_pressure;BME280_temperature;BME280_humidity;BME280_pressure;Samples;Min_cycle;Max_cycle;Signal;HPM_P1;HPM_P2
2023/12/14 00:02:15;;;;;;;1.40;1.30;;;8.10;99.90;;;;;;5033363;28;20190;-89
2023/12/14 00:04:41;;;;;;;1.73;1.40;;;8.40;99.90;;;;;;5033355;28;20214;-89
2023/12/14 00:07:06;;;;;;;1.23;1.13;;;8.10;99.90;;;;;;5051936;28;20177;-89
2023/12/14 00:09:32;;;;;;;2.33;1.60;;;8.10;99.90;;;;;;5049050;28;20193;-89
2023/12/14 00:11:57;;;;;;;2.80;1.40;;;8.50;99.90;;;;;;5032594;28;20228;-88
2023/12/14 00:14:23;;;;;;;2.30;1.43;;;8.40;99.90;;;;;;5033151;28;20590;-89
2023/12/14 00:16:49;;;;;;;2.07;1.47;;;8.50;99.90;;;;;;5054750;28;20235;-88
2023/12/14 00:19:15;;;;;;;1.70;1.50;;;8.00;99.90;;;;;;5056633;28;20189;-89
2023/12/14 00:21:40;;;;;;;1.90;1.70;;;8.20;99.90;;;;;;5038576;28;20190;-89
2023/12/14 00:24:06;;;;;;;2.07;1.90;;;8.30;99.90;;;;;;5032428;28;20208;-89
2023/12/14 00:26:32;;;;;;;2.67;1.77;;;8.20;99.90;;;;;;5027908;28;20198;-88
2023/12/14 00:28:57;;;;;;;2.57;1.70;;;8.00;99.90;;;;;;5032838;28;20185;-89
2023/12/14 00:31:23;;;;;;;3.30;1.50;;;8.10;99.90;;;;;;5032649;28;20194;-88
2023/12/14 00:33:48;;;;;;;2.23;1.73;;;8.30;99.90;;;;;;5031028;28;20197;-89
2023/12/14 00:36:20;;;;;;;2.23;1.63;;;8.20;99.90;;;;;;5033140;28;20630;-88
2023/12/14 00:38:46;;;;;;;1.80;1.67;;;8.50;99.90;;;;;;5027834;28;20198;-89
2023/12/14 00:41:12;;;;;;;1.98;1.70;;;8.10;99.90;;;;;;5030743;28;20182;-89
2023/12/14 00:43:38;;;;;;;2.22;1.75;;;8.00;99.90;;;;;;5027738;28;20294;-89
2023/12/14 00:46:03;;;;;;;2.17;1.70;;;7.90;99.90;;;;;;5033517;28;20717;-89
2023/12/14 00:48:29;;;;;;;3.97;2.57;;;7.70;99.90;;;;;;5028103;28;20500;-89
2023/12/14 00:50:54;;;;;;;2.50;2.00;;;8.00;99.90;;;;;;5031054;28;20184;-89
2023/12/14 00:53:20;;;;;;;3.57;1.77;;;7.80;99.90;;;;;;5025476;28;20210;-89
2023/12/14 00:55:45;;;;;;;3.00;2.00;;;7.90;99.90;;;;;;5057957;28;20178;-89
2023/12/14 00:58:14;;;;;;;2.77;2.33;;;7.80;99.90;;;;;;5054307;28;20174;-89
2023/12/14 01:00:40;;;;;;;3.20;2.67;;;8.30;99.90;;;;;;5045789;28;20196;-89
2023/12/14 01:03:06;;;;;;;4.57;2.80;;;8.30;99.90;;;;;;5041149;28;20224;-89
2023/12/14 01:05:32;;;;;;;3.70;2.33;;;7.70;99.90;;;;;;5033300;28;20232;-88
2023/12/14 01:07:57;;;;;;;3.93;3.53;;;7.70;99.90;;;;;;5032873;28;20208;-89
2023/12/14 01:10:23;;;;;;;4.10;3.00;;;8.00;99.90;;;;;;5050270;28;20254;-89
2023/12/14 01:12:48;;;;;;;3.73;3.37;;;8.00;99.90;;;;;;5030636;28;20178;-89
2023/12/14 01:15:14;;;;;;;5.80;3.80;;;7.90;99.90;;;;;;5048616;28;20248;-89
2023/12/14 01:17:40;;;;;;;4.57;3.03;;;8.10;99.90;;;;;;5030218;28;20426;-89
2023/12/14 01:20:07;;;;;;;6.40;3.03;;;8.10;99.90;;;;;;5024243;28;20189;-89
2023/12/14 01:22:33;;;;;;;4.13;3.47;;;8.10;99.90;;;;;;5021546;28;20220;-91
2023/12/14 01:24:59;;;;;;;4.22;3.40;;;8.00;99.90;;;;;;5030746;28;20210;-90
2023/12/14 01:27:24;;;;;;;6.67;3.63;;;8.50;99.90;;;;;;5031136;28;20593;-90
2023/12/14 01:29:50;;;;;;;3.60;3.17;;;8.00;99.90;;;;;;5049667;28;20425;-90
2023/12/14 01:32:15;;;;;;;5.10;3.17;;;8.30;99.90;;;;;;5030923;28;20264;-89
2023/12/14 01:34:41;;;;;;;3.53;2.57;;;8.40;99.90;;;;;;5047593;28;20262;-89
2023/12/14 01:37:07;;;;;;;2.73;2.13;;;8.20;99.90;;;;;;5040387;28;20170;-88
2023/12/14 01:39:32;;;;;;;3.87;2.20;;;8.00;99.90;;;;;;5057355;28;20185;-90
2023/12/14 01:41:58;;;;;;;2.33;2.00;;;8.10;99.90;;;;;;5058336;28;20193;-90
2023/12/14 01:44:24;;;;;;;4.60;2.10;;;8.10;99.90;;;;;;5030718;28;20283;-90
2023/12/14 01:46:49;;;;;;;2.53;1.90;;;8.10;99.90;;;;;;5029038;28;20187;-91
2023/12/14 01:49:15;;;;;;;4.83;2.40;;;7.90;99.90;;;;;;5035566;28;20264;-91
2023/12/14 01:51:40;;;;;;;2.60;2.23;;;8.30;99.90;;;;;;5032165;28;20566;-91
2023/12/14 01:54:06;;;;;;;3.07;2.03;;;8.30;99.90;;;;;;5030289;28;20205;-90
2023/12/14 01:56:31;;;;;;;3.23;2.10;;;8.30;99.90;;;;;;5053106;28;20239;-91
2023/12/14 01:58:57;;;;;;;4.20;2.27;;;7.90;99.90;;;;;;5037724;28;20202;-91
2023/12/14 02:01:34;;;;;;;3.77;2.00;;;7.80;99.90;;;;;;5047745;28;20186;-90
2023/12/14 02:04:00;;;;;;;2.17;1.98;;;7.90;99.90;;;;;;5047911;28;20201;-90
2023/12/14 02:06:26;;;;;;;2.40;2.10;;;8.20;99.90;;;;;;5032708;28;20181;-90
2023/12/14 02:08:52;;;;;;;2.40;2.17;;;8.10;99.90;;;;;;5031375;28;20419;-90
2023/12/14 02:11:17;;;;;;;2.30;1.55;;;7.70;99.90;;;;;;5034485;28;20592;-91
2023/12/14 02:13:43;;;;;;;2.53;1.97;;;7.80;99.90;;;;;;5030486;28;20208;-90
2023/12/14 02:16:09;;;;;;;2.50;1.90;;;8.10;99.90;;;;;;5035609;28;20186;-90
2023/12/14 02:18:34;;;;;;;2.30;1.97;;;7.90;99.90;;;;;;5033532;28;20181;-91
2023/12/14 02:21:00;;;;;;;4.13;1.97;;;7.60;99.90;;;;;;5044333;28;20869;-90
2023/12/14 02:23:26;;;;;;;2.07;1.80;;;7.70;99.90;;;;;;5032928;28;20204;-90
2023/12/14 02:25:51;;;;;;;1.40;1.13;;;7.70;99.90;;;;;;5032815;28;20212;-91
2023/12/14 02:28:17;;;;;;;1.10;1.00;;;7.70;99.90;;;;;;5029768;28;20204;-90
2023/12/14 02:30:42;;;;;;;3.03;1.20;;;7.70;99.90;;;;;;5037943;28;20197;-90
2023/12/14 02:33:08;;;;;;;1.67;1.50;;;8.40;99.90;;;;;;5037228;28;20179;-90
2023/12/14 02:35:33;;;;;;;1.90;1.43;;;7.90;99.90;;;;;;5036676;28;20467;-90
2023/12/14 02:37:59;;;;;;;3.33;1.23;;;8.00;99.90;;;;;;5032653;28;20177;-91
2023/12/14 02:40:24;;;;;;;1.57;1.47;;;7.60;99.90;;;;;;5036956;28;20627;-90
2023/12/14 02:42:50;;;;;;;1.23;1.13;;;8.00;99.90;;;;;;5050797;28;20182;-91
2023/12/14 02:45:15;;;;;;;2.20;1.67;;;8.20;99.90;;;;;;5029771;28;20205;-91
2023/12/14 02:47:41;;;;;;;1.43;1.17;;;8.30;99.90;;;;;;5033908;28;20181;-90
2023/12/14 02:50:07;;;;;;;1.33;1.13;;;7.80;99.90;;;;;;5033783;28;20205;-91
2023/12/14 02:52:32;;;;;;;1.70;1.40;;;7.90;99.90;;;;;;5059054;28;20285;-89
2023/12/14 02:54:58;;;;;;;2.37;1.20;;;8.20;99.90;;;;;;5058220;28;20467;-90
2023/12/14 02:57:24;;;;;;;2.90;1.47;;;7.80;99.90;;;;;;5040204;28;20216;-88
2023/12/14 02:59:49;;;;;;;1.90;1.33;;;8.10;99.90;;;;;;5036125;28;20213;-88
2023/12/14 03:02:15;;;;;;;4.20;1.27;;;7.70;99.90;;;;;;5032667;28;20201;-91
2023/12/14 03:04:40;;;;;;;1.87;1.70;;;7.70;99.90;;;;;;5036389;28;20229;-90
2023/12/14 03:07:06;;;;;;;5.43;1.60;;;7.60;99.90;;;;;;5032048;28;20177;-91
2023/12/14 03:09:32;;;;;;;1.70;1.60;;;7.70;99.90;;;;;;5035634;28;20213;-91
2023/12/14 03:12:00;;;;;;;1.80;1.60;;;7.50;99.90;;;;;;5034995;28;20581;-90
2023/12/14 03:14:25;;;;;;;2.25;1.70;;;7.70;99.90;;;;;;5036794;28;20205;-90
2023/12/14 03:16:51;;;;;;;1.83;1.73;;;7.70;99.90;;;;;;5032380;28;20720;-89
2023/12/14 03:19:16;;;;;;;2.73;1.50;;;7.80;99.90;;;;;;5034996;28;20209;-91
2023/12/14 03:21:45;;;;;;;1.47;1.37;;;7.90;99.90;;;;;;5032397;28;20227;-91
2023/12/14 03:24:10;;;;;;;1.70;1.60;;;7.60;99.90;;;;;;5033030;28;20288;-91
2023/12/14 03:26:36;;;;;;;1.63;1.47;;;7.70;99.90;;;;;;5033009;28;20264;-91
2023/12/14 03:29:02;;;;;;;2.60;1.93;;;7.60;99.90;;;;;;5026012;28;20660;-90
2023/12/14 03:31:27;;;;;;;1.77;1.30;;;7.70;99.90;;;;;;5030997;28;20235;-91
2023/12/14 03:33:53;;;;;;;2.07;1.50;;;8.10;99.90;;;;;;5032741;28;20209;-90
2023/12/14 03:36:18;;;;;;;1.90;1.50;;;8.10;99.90;;;;;;5034739;28;20265;-90
2023/12/14 03:38:44;;;;;;;1.70;1.60;;;7.70;99.90;;;;;;5031204;28;20277;-90
2023/12/14 03:41:09;;;;;;;1.97;1.60;;;7.80;99.90;;;;;;5032081;28;20664;-90
2023/12/14 03:43:35;;;;;;;1.50;1.30;;;7.60;99.90;;;;;;5037205;28;20200;-90
2023/12/14 03:46:00;;;;;;;1.70;1.60;;;8.00;99.90;;;;;;5033330;28;20707;-91
2023/12/14 03:48:26;;;;;;;1.27;1.17;;;7.80;99.90;;;;;;5034055;28;20193;-90
2023/12/14 03:50:51;;;;;;;1.83;1.73;;;7.80;99.90;;;;;;5032058;28;20189;-88
2023/12/14 03:53:17;;;;;;;1.27;1.17;;;7.60;99.90;;;;;;5034730;28;20182;-91
2023/12/14 03:55:43;;;;;;;1.70;1.60;;;7.50;99.90;;;;;;5031765;28;20311;-91
2023/12/14 03:58:08;;;;;;;1.33;1.17;;;7.90;99.90;;;;;;5033132;28;20182;-91
2023/12/14 04:00:34;;;;;;;1.73;1.27;;;7.60;99.90;;;;;;5028799;28;20414;-90
2023/12/14 04:02:59;;;;;;;1.50;1.40;;;7.90;99.90;;;;;;5032523;28;20185;-90
2023/12/14 04:05:25;;;;;;;2.07;1.57;;;7.60;99.90;;;;;;5035032;28;20209;-91
2023/12/14 04:07:50;;;;;;;2.67;1.40;;;7.90;99.90;;;;;;5050098;28;20555;-91
2023/12/14 04:10:16;;;;;;;3.67;1.70;;;7.60;99.90;;;;;;5033413;28;20267;-91
2023/12/14 04:12:41;;;;;;;1.40;1.30;;;7.90;99.90;;;;;;5033819;28;20192;-90
2023/12/14 04:15:09;;;;;;;2.70;1.57;;;8.40;99.90;;;;;;5038808;28;20677;-91
2023/12/14 04:17:35;;;;;;;1.80;1.70;;;7.90;99.90;;;;;;5055109;28;20193;-91
2023/12/14 04:20:01;;;;;;;2.20;1.90;;;8.00;99.90;;;;;;5041938;28;20190;-90
2023/12/14 04:22:26;;;;;;;1.90;1.50;;;7.90;99.90;;;;;;5037737;28;20202;-89
2023/12/14 04:24:52;;;;;;;1.67;1.57;;;8.10;99.90;;;;;;5036739;28;20450;-91
2023/12/14 04:27:18;;;;;;;2.13;1.93;;;8.30;99.90;;;;;;5036905;28;20433;-89
2023/12/14 04:29:43;;;;;;;4.10;1.70;;;7.80;99.90;;;;;;5054248;28;20190;-91
2023/12/14 04:32:09;;;;;;;2.23;1.30;;;8.10;99.90;;;;;;5059595;28;20178;-89
2023/12/14 04:34:35;;;;;;;1.50;1.30;;;8.10;99.90;;;;;;5059552;28;20185;-90
2023/12/14 04:37:01;;;;;;;1.57;1.40;;;8.10;99.90;;;;;;5056029;28;20189;-91
2023/12/14 04:39:27;;;;;;;2.20;2.00;;;8.60;99.90;;;;;;5054326;28;20213;-89
2023/12/14 04:41:54;;;;;;;2.20;1.97;;;8.10;99.90;;;;;;5041159;28;20559;-88
2023/12/14 04:44:21;;;;;;;2.17;1.98;;;8.10;99.90;;;;;;5031455;28;20439;-90
2023/12/14 04:46:47;;;;;;;2.08;1.88;;;8.30;99.90;;;;;;5031727;28;20170;-90
2023/12/14 04:49:12;;;;;;;2.20;2.00;;;8.50;99.90;;;;;;5032630;28;20558;-91
2023/12/14 04:51:38;;;;;;;2.50;2.30;;;7.70;99.90;;;;;;5032640;28;20434;-91
2023/12/14 04:54:04;;;;;;;2.10;1.70;;;8.20;99.90;;;;;;5032099;28;20260;-91
2023/12/14 04:56:29;;;;;;;5.13;2.97;;;8.40;99.90;;;;;;5028581;28;20239;-90
2023/12/14 04:58:55;;;;;;;2.67;2.30;;;8.00;99.90;;;;;;5031993;28;20190;-91
2023/12/14 05:01:20;;;;;;;2.90;2.70;;;8.10;99.90;;;;;;5033886;28;20251;-91
2023/12/14 05:03:46;;;;;;;3.53;2.47;;;8.00;99.90;;;;;;5029906;28;20678;-91
2023/12/14 05:06:11;;;;;;;2.47;2.27;;;8.00;99.90;;;;;;5031411;28;20190;-90
2023/12/14 05:08:37;;;;;;;5.40;3.03;;;8.00;99.90;;;;;;5032028;28;20196;-90
2023/12/14 05:11:03;;;;;;;2.80;2.60;;;8.00;99.90;;;;;;5029173;28;20186;-90
2023/12/14 05:13:28;;;;;;;4.80;2.60;;;7.90;99.90;;;;;;5030538;28;20182;-90
2023/12/14 05:15:54;;;;;;;3.23;2.93;;;8.00;99.90;;;;;;5030449;28;21152;-90
2023/12/14 05:18:20;;;;;;;5.13;2.90;;;7.90;99.90;;;;;;5029099;28;20271;-89
2023/12/14 05:20:45;;;;;;;3.30;3.00;;;8.30;99.90;;;;;;5056575;28;20174;-90
2023/12/14 05:23:12;;;;;;;4.00;3.60;;;8.10;99.90;;;;;;5058772;28;20472;-90
2023/12/14 05:25:38;;;;;;;5.47;3.47;;;7.90;99.90;;;;;;5038812;28;20221;-91
2023/12/14 05:28:03;;;;;;;5.47;4.00;;;8.40;99.90;;;;;;5028785;28;20188;-91
2023/12/14 05:30:29;;;;;;;4.17;3.77;;;8.10;99.90;;;;;;5038373;28;20173;-89
2023/12/14 05:32:55;;;;;;;4.10;3.43;;;7.90;99.90;;;;;;5036010;28;20181;-89
2023/12/14 05:35:21;;;;;;;4.40;3.90;;;8.20;99.90;;;;;;5033945;28;20764;-91
2023/12/14 05:37:47;;;;;;;4.73;4.20;;;7.90;99.90;;;;;;5034746;28;20778;-89
2023/12/14 05:40:13;;;;;;;4.20;3.70;;;8.00;99.90;;;;;;5032779;28;20180;-90
2023/12/14 05:42:38;;;;;;;5.03;4.00;;;7.80;99.90;;;;;;5030740;28;20177;-91
2023/12/14 05:45:05;;;;;;;4.03;3.60;;;7.90;99.90;;;;;;5032873;28;20212;-90
2023/12/14 05:47:32;;;;;;;6.50;4.20;;;8.00;99.90;;;;;;5031289;28;20185;-90
2023/12/14 05:49:59;;;;;;;4.65;4.13;;;7.90;99.90;;;;;;5033623;28;20182;-89
2023/12/14 05:52:24;;;;;;;5.75;3.90;;;8.30;99.90;;;;;;5029986;28;20186;-89
2023/12/14 05:54:50;;;;;;;5.90;3.87;;;8.00;99.90;;;;;;5031154;28;20437;-90
2023/12/14 05:57:16;;;;;;;5.97;3.97;;;8.50;99.90;;;;;;5047860;28;20445;-88
2023/12/14 05:59:41;;;;;;;4.50;4.10;;;8.20;99.90;;;;;;5055165;28;20528;-88
2023/12/14 06:02:07;;;;;;;4.80;3.93;;;8.10;99.90;;;;;;5037423;28;20202;-91
2023/12/14 06:04:32;;;;;;;4.27;3.70;;;8.70;99.90;;;;;;5029200;28;20223;-91
2023/12/14 06:06:58;;;;;;;4.87;4.37;;;8.40;99.90;;;;;;5015561;28;20196;-91
2023/12/14 06:09:31;;;;;;;3.93;3.57;;;8.70;99.90;;;;;;5032765;28;20197;-91
2023/12/14 06:11:57;;;;;;;6.50;3.80;;;8.50;99.90;;;;;;5030110;28;20186;-91
2023/12/14 06:14:23;;;;;;;4.80;3.70;;;8.50;99.90;;;;;;5029662;28;20670;-91
2023/12/14 06:16:48;;;;;;;5.27;4.57;;;8.80;99.90;;;;;;5029807;28;20177;-91
2023/12/14 06:19:14;;;;;;;4.40;3.70;;;8.60;99.90;;;;;;5047852;28;20772;-90
2023/12/14 06:21:40;;;;;;;4.63;3.80;;;8.80;99.90;;;;;;5049780;28;20642;-91
2023/12/14 06:24:06;;;;;;;4.35;3.95;;;8.30;99.90;;;;;;5031464;28;20815;-91
2023/12/14 06:26:31;;;;;;;5.67;4.10;;;8.30;99.90;;;;;;5051680;28;20186;-91
2023/12/14 06:28:58;;;;;;;4.00;3.57;;;8.80;99.90;;;;;;5035192;28;20559;-90
2023/12/14 06:31:23;;;;;;;5.30;3.92;;;8.50;99.90;;;;;;5031908;28;20222;-90
2023/12/14 06:33:49;;;;;;;5.40;3.40;;;8.80;99.90;;;;;;5042762;28;20190;-90
2023/12/14 06:36:18;;;;;;;4.20;3.80;;;8.40;99.90;;;;;;5053879;28;20269;-89
2023/12/14 06:38:44;;;;;;;4.80;4.35;;;8.70;99.90;;;;;;5051499;28;20443;-91
2023/12/14 06:41:21;;;;;;;3.93;3.53;;;8.40;99.90;;;;;;5037777;28;20200;-91
2023/12/14 06:43:46;;;;;;;5.55;4.40;;;8.50;99.90;;;;;;5032772;28;20206;-90
2023/12/14 06:46:12;;;;;;;8.77;4.60;;;8.90;99.90;;;;;;5053734;28;20201;-91
2023/12/14 06:48:37;;;;;;;6.10;4.60;;;8.50;99.90;;;;;;5037059;28;20190;-90
2023/12/14 06:51:03;;;;;;;4.23;3.83;;;9.10;99.90;;;;;;5031966;28;20191;-91
2023/12/14 06:53:30;;;;;;;4.90;4.50;;;8.70;99.90;;;;;;5052588;28;20674;-90
2023/12/14 06:55:55;;;;;;;4.15;3.80;;;9.20;99.90;;;;;;5032757;28;20412;-88
2023/12/14 06:58:21;;;;;;;5.60;5.00;;;8.70;99.90;;;;;;5035571;28;20192;-91
2023/12/14 07:00:47;;;;;;;6.33;4.33;;;8.60;99.90;;;;;;5039396;28;20496;-91
2023/12/14 07:03:14;;;;;;;9.25;6.85;;;8.60;99.90;;;;;;5024070;28;20304;-90
2023/12/14 07:05:39;;;;;;;16.37;8.50;;;8.60;99.90;;;;;;5059125;28;20204;-90
2023/12/14 07:08:05;;;;;;;7.70;5.70;;;8.50;99.90;;;;;;5048351;28;20447;-90
2023/12/14 07:10:31;;;;;;;6.33;4.80;;;8.60;99.90;;;;;;5042143;28;20193;-91
2023/12/14 07:12:56;;;;;;;11.63;5.50;;;8.70;99.90;;;;;;5034399;28;20182;-91
2023/12/14 07:15:22;;;;;;;6.40;4.37;;;8.50;99.90;;;;;;5034957;28;20448;-91
2023/12/14 07:17:48;;;;;;;5.30;4.77;;;9.00;99.90;;;;;;5055301;28;20182;-89
2023/12/14 07:20:13;;;;;;;6.63;5.50;;;9.00;99.90;;;;;;5031441;28;20222;-89
2023/12/14 07:22:39;;;;;;;7.10;4.70;;;8.70;99.90;;;;;;5037193;28;20224;-90
2023/12/14 07:25:04;;;;;;;4.63;4.13;;;8.80;99.90;;;;;;5035152;28;20262;-89
2023/12/14 07:27:30;;;;;;;7.27;4.37;;;8.50;99.90;;;;;;5033659;28;20182;-89
2023/12/14 07:29:56;;;;;;;3.93;3.63;;;8.90;99.90;;;;;;5038814;28;20190;-89
2023/12/14 07:32:21;;;;;;;5.00;4.13;;;8.90;99.90;;;;;;5035676;28;20293;-89
2023/12/14 07:34:47;;;;;;;6.17;4.13;;;8.80;99.90;;;;;;5036931;28;20212;-89
2023/12/14 07:37:13;;;;;;;5.27;4.37;;;8.50;99.90;;;;;;5034995;28;20190;-89
2023/12/14 07:39:38;;;;;;;4.80;3.73;;;8.70;99.90;;;;;;5043100;28;20422;-89
2023/12/14 07:42:05;;;;;;;4.67;4.00;;;8.30;99.90;;;;;;5051925;28;20440;-89
2023/12/14 07:44:31;;;;;;;4.18;3.75;;;8.70;99.90;;;;;;5041986;28;20254;-90
2023/12/14 07:46:59;;;;;;;3.70;3.37;;;8.40;99.90;;;;;;5030284;28;20187;-91
2023/12/14 07:49:25;;;;;;;4.25;3.85;;;8.50;99.90;;;;;;5034081;28;20304;-90
2023/12/14 07:51:51;;;;;;;4.10;3.70;;;8.80;99.90;;;;;;5033935;28;20279;-91
2023/12/14 07:54:17;;;;;;;5.15;4.13;;;8.80;99.90;;;;;;5034277;28;20862;-91
2023/12/14 07:56:43;;;;;;;3.50;3.20;;;8.50;99.90;;;;;;5035608;28;20625;-91
2023/12/14 07:59:09;;;;;;;4.23;3.20;;;8.70;99.90;;;;;;5033277;28;20510;-91
2023/12/14 08:01:35;;;;;;;4.82;3.15;;;8.90;99.90;;;;;;5036832;28;20780;-91
2023/12/14 08:04:01;;;;;;;3.83;3.53;;;8.60;99.90;;;;;;5035043;28;20221;-91
2023/12/14 08:06:27;;;;;;;4.22;3.47;;;8.60;99.90;;;;;;5034022;28;20223;-91
2023/12/14 08:08:52;;;;;;;5.40;4.90;;;9.20;99.90;;;;;;5039267;28;20189;-91
2023/12/14 08:11:18;;;;;;;4.50;3.53;;;9.10;99.90;;;;;;5062596;28;20182;-90
2023/12/14 08:13:43;;;;;;;4.10;3.70;;;8.70;99.90;;;;;;5057050;28;20271;-91
2023/12/14 08:16:11;;;;;;;3.50;3.20;;;8.70;99.90;;;;;;5059978;28;20178;-91
2023/12/14 08:18:36;;;;;;;3.92;3.53;;;8.90;99.90;;;;;;5037664;28;20185;-91
2023/12/14 08:21:02;;;;;;;3.97;3.63;;;9.10;99.90;;;;;;5032438;28;20177;-88
2023/12/14 08:23:29;;;;;;;3.90;3.37;;;8.80;99.90;;;;;;5034631;28;20196;-91
2023/12/14 08:25:58;;;;;;;4.60;3.97;;;8.70;99.90;;;;;;5034361;28;20895;-91
2023/12/14 08:28:25;;;;;;;5.10;4.10;;;8.80;99.90;;;;;;5023931;28;20281;-90
2023/12/14 08:30:51;;;;;;;4.00;3.58;;;9.30;99.90;;;;;;5022352;28;20186;-90
2023/12/14 08:33:16;;;;;;;4.30;3.53;;;8.90;99.90;;;;;;5034514;28;20192;-90
2023/12/14 08:35:42;;;;;;;4.27;3.53;;;9.30;99.90;;;;;;5038315;28;20451;-90
2023/12/14 08:38:07;;;;;;;5.00;4.60;;;9.50;99.90;;;;;;5032186;28;20201;-90
2023/12/14 08:40:33;;;;;;;6.07;4.93;;;9.40;99.90;;;;;;5036104;28;20194;-89
2023/12/14 08:42:59;;;;;;;4.60;4.20;;;9.00;99.90;;;;;;5037813;28;20251;-89
2023/12/14 08:45:24;;;;;;;4.67;4.27;;;9.30;99.90;;;;;;5056519;28;20250;-90
2023/12/14 08:47:50;;;;;;;4.73;4.20;;;9.30;99.90;;;;;;5047655;28;20186;-89
2023/12/14 08:50:15;;;;;;;4.37;3.80;;;9.30;99.90;;;;;;5043234;28;20193;-89
2023/12/14 08:52:41;;;;;;;7.30;4.67;;;8.90;99.90;;;;;;5040383;28;20576;-90
2023/12/14 08:55:08;;;;;;;5.50;4.80;;;9.00;99.90;;;;;;5051803;28;20212;-90
2023/12/14 08:57:34;;;;;;;4.68;4.20;;;9.60;99.90;;;;;;5039168;28;20444;-90
2023/12/14 09:00:00;;;;;;;5.65;4.88;;;9.70;99.90;;;;;;5016097;28;20718;-90
2023/12/14 09:02:26;;;;;;;7.20;5.00;;;9.80;99.90;;;;;;5050714;28;20312;-90
2023/12/14 09:04:52;;;;;;;6.80;4.85;;;10.00;99.90;;;;;;5042432;28;20686;-90
2023/12/14 09:07:17;;;;;;;5.20;4.70;;;9.90;99.90;;;;;;5040059;28;20259;-90
2023/12/14 09:09:43;;;;;;;6.40;4.80;;;9.50;99.90;;;;;;5034676;28;20178;-90
2023/12/14 09:12:09;;;;;;;6.57;5.13;;;9.40;99.90;;;;;;5057871;28;20614;-90
2023/12/14 09:14:35;;;;;;;4.70;4.23;;;9.90;99.90;;;;;;5031878;28;20268;-90
2023/12/14 09:17:01;;;;;;;4.70;4.20;;;9.70;99.90;;;;;;5037183;28;20190;-90
2023/12/14 09:19:28;;;;;;;4.77;4.37;;;10.20;99.90;;;;;;5034129;28;20233;-90
2023/12/14 09:21:53;;;;;;;4.80;3.97;;;9.90;99.90;;;;;;5037881;28;20188;-90
2023/12/14 09:24:19;;;;;;;4.90;4.10;;;9.70;99.90;;;;;;5039557;28;20277;-89
2023/12/14 09:26:44;;;;;;;4.40;4.00;;;9.80;99.90;;;;;;5035245;28;20183;-89
2023/12/14 09:29:10;;;;;;;4.50;4.10;;;9.80;99.90;;;;;;5034003;28;20187;-90
2023/12/14 09:31:35;;;;;;;4.83;4.30;;;10.60;99.90;;;;;;5034240;28;20195;-89
2023/12/14 09:34:01;;;;;;;4.83;4.33;;;10.40;99.90;;;;;;5037677;28;20209;-89
2023/12/14 09:36:27;;;;;;;5.80;4.97;;;10.10;99.90;;;;;;5038396;28;20201;-89
2023/12/14 09:38:53;;;;;;;5.13;4.73;;;10.40;99.90;;;;;;5036078;28;20445;-90
2023/12/14 09:41:18;;;;;;;6.60;4.43;;;10.10;99.90;;;;;;5054258;28;20189;-89
2023/12/14 09:43:45;;;;;;;5.53;4.70;;;10.30;99.90;;;;;;5055977;28;20195;-89
2023/12/14 09:46:11;;;;;;;5.28;4.78;;;10.50;99.90;;;;;;5051300;28;20226;-89
2023/12/14 09:48:37;;;;;;;5.22;4.65;;;10.50;99.90;;;;;;5041014;28;20278;-89
2023/12/14 09:51:02;;;;;;;5.60;4.60;;;10.20;99.90;;;;;;5035310;28;20262;-89
2023/12/14 09:53:28;;;;;;;5.60;4.93;;;10.20;99.90;;;;;;5031861;28;20186;-90
2023/12/14 09:55:54;;;;;;;6.27;5.67;;;10.20;99.90;;;;;;5025856;28;20195;-89
2023/12/14 09:58:19;;;;;;;6.73;6.13;;;9.90;99.90;;;;;;5055230;28;20265;-89
2023/12/14 10:00:45;;;;;;;7.00;6.30;;;10.50;99.90;;;;;;5052341;28;20188;-89
2023/12/14 10:03:26;;;;;;;5.60;5.00;;;10.10;99.90;;;;;;5043453;28;20208;-89
2023/12/14 10:05:52;;;;;;;8.82;5.68;;;9.80;99.90;;;;;;5043054;28;20694;-89
2023/12/14 10:08:18;;;;;;;7.45;6.60;;;10.20;99.90;;;;;;5036432;28;20562;-90
2023/12/14 10:10:44;;;;;;;8.20;6.00;;;10.30;99.90;;;;;;5033945;28;20188;-89
2023/12/14 10:13:11;;;;;;;5.65;5.13;;;10.80;99.90;;;;;;5036594;28;20189;-90
2023/12/14 10:15:43;;;;;;;6.10;5.50;;;10.90;99.90;;;;;;5046013;28;20184;-90
2023/12/14 10:18:09;;;;;;;6.28;5.68;;;10.70;99.90;;;;;;5046676;28;20181;-89
2023/12/14 10:20:36;;;;;;;6.10;5.50;;;11.40;99.90;;;;;;5041839;28;20236;-89
2023/12/14 10:23:06;;;;;;;5.68;5.05;;;12.00;99.90;;;;;;5051539;28;20448;-90
2023/12/14 10:25:32;;;;;;;5.68;5.07;;;12.20;99.90;;;;;;5050696;28;20209;-90
2023/12/14 10:28:00;;;;;;;8.13;5.90;;;11.50;99.90;;;;;;5036869;28;20189;-89
2023/12/14 10:30:28;;;;;;;9.57;5.25;;;11.50;99.90;;;;;;5028058;28;20189;-89
2023/12/14 10:32:54;;;;;;;10.57;8.35;;;11.50;99.90;;;;;;5057387;28;20209;-90
2023/12/14 10:35:21;;;;;;;8.50;5.97;;;11.40;99.90;;;;;;5036173;28;20235;-89
2023/12/14 10:37:52;;;;;;;6.78;4.80;;;11.40;99.90;;;;;;5040964;28;20197;-90
2023/12/14 10:40:18;;;;;;;8.10;6.13;;;11.40;99.90;;;;;;5035918;28;20195;-89
2023/12/14 10:42:45;;;;;;;6.35;5.35;;;11.40;99.90;;;;;;5035758;28;20224;-89
2023/12/14 10:45:16;;;;;;;5.57;4.75;;;11.90;99.90;;;;;;5033985;28;20244;-90
2023/12/14 10:47:46;;;;;;;6.05;5.28;;;11.40;99.90;;;;;;5018817;28;20181;-90
2023/12/14 10:50:12;;;;;;;9.48;7.85;;;12.00;99.90;;;;;;5042700;28;20185;-90
2023/12/14 10:52:43;;;;;;;7.00;4.50;;;12.00;99.90;;;;;;5050390;28;20188;-89
2023/12/14 10:55:19;;;;;;;6.05;5.38;;;11.70;99.90;;;;;;5058616;28;20190;-89
2023/12/14 10:57:45;;;;;;;6.15;5.50;;;11.40;99.90;;;;;;5054732;28;20228;-90
2023/12/14 11:00:12;;;;;;;5.80;5.20;;;11.70;99.90;;;;;;5032925;28;20218;-89
2023/12/14 11:02:42;;;;;;;6.95;5.90;;;12.00;99.90;;;;;;5022871;28;20202;-90
2023/12/14 11:05:11;;;;;;;6.25;5.50;;;12.00;99.90;;;;;;5041059;28;20221;-90
2023/12/14 11:08:09;;;;;;;5.03;4.47;;;11.80;99.90;;;;;;5035416;28;20267;-90
2023/12/14 11:10:43;;;;;;;5.22;4.72;;;11.80;99.90;;;;;;5040731;28;20198;-90
2023/12/14 11:13:14;;;;;;;5.93;4.40;;;11.60;99.90;;;;;;5052676;28;20185;-90
2023/12/14 11:15:50;;;;;;;6.00;5.10;;;12.00;99.90;;;;;;5049181;28;20173;-90
2023/12/14 11:18:15;;;;;;;5.10;4.57;;;12.10;99.90;;;;;;5059478;28;20226;-89
2023/12/14 11:21:01;;;;;;;5.80;4.10;;;11.90;99.90;;;;;;5057640;28;20181;-90
2023/12/14 11:23:29;;;;;;;4.45;4.05;;;11.50;99.90;;;;;;5058057;28;20202;-89
2023/12/14 11:26:22;;;;;;;5.35;4.40;;;11.60;99.90;;;;;;5050377;28;20244;-90
2023/12/14 11:28:48;;;;;;;4.50;4.07;;;11.50;99.90;;;;;;5072778;28;20169;-90
2023/12/14 11:31:14;;;;;;;7.38;4.47;;;12.00;99.90;;;;;;5042319;28;20190;-89
2023/12/14 11:33:40;;;;;;;5.90;4.93;;;12.20;99.90;;;;;;5049941;28;20295;-90
2023/12/14 11:36:06;;;;;;;8.35;4.82;;;11.70;99.90;;;;;;5039517;28;20261;-89
2023/12/14 11:38:34;;;;;;;6.68;4.97;;;11.50;99.90;;;;;;5040739;28;20190;-90
2023/12/14 11:41:00;;;;;;;6.57;4.53;;;11.90;99.90;;;;;;5035455;28;20189;-90
2023/12/14 11:43:26;;;;;;;6.13;5.37;;;11.50;99.90;;;;;;5049627;28;20199;-89
2023/12/14 11:45:52;;;;;;;11.23;5.57;;;11.80;99.90;;;;;;5053479;28;20214;-90
2023/12/14 11:48:20;;;;;;;7.90;6.28;;;12.10;99.90;;;;;;5060195;28;20469;-89
2023/12/14 11:50:46;;;;;;;6.60;5.30;;;11.90;99.90;;;;;;5047480;28;20189;-90
2023/12/14 11:53:12;;;;;;;6.40;5.63;;;11.80;99.90;;;;;;5038063;28;20276;-90
2023/12/14 11:55:39;;;;;;;9.05;5.78;;;11.50;99.90;;;;;;5033489;28;20444;-90
2023/12/14 11:58:06;;;;;;;6.10;5.47;;;11.30;99.90;;;;;;5030289;28;20568;-90
2023/12/14 12:00:32;;;;;;;6.35;4.68;;;11.20;99.90;;;;;;5052392;28;20267;-90
2023/12/14 12:03:15;;;;;;;4.75;3.95;;;11.50;99.90;;;;;;5034674;28;20877;-89
2023/12/14 12:05:43;;;;;;;6.10;5.07;;;11.40;99.90;;;;;;5035320;28;20660;-89
2023/12/14 12:08:10;;;;;;;4.20;3.17;;;11.50;99.90;;;;;;5050636;28;20267;-90
2023/12/14 12:10:37;;;;;;;3.72;2.72;;;11.10;99.90;;;;;;5035873;28;20192;-90
2023/12/14 12:13:05;;;;;;;3.47;2.67;;;11.10;99.90;;;;;;5041321;28;20231;-89
2023/12/14 12:15:33;;;;;;;2.65;2.35;;;11.00;99.90;;;;;;5056355;28;20192;-89
2023/12/14 12:17:58;;;;;;;3.10;2.40;;;11.10;99.90;;;;;;5063698;28;20200;-90
2023/12/14 12:20:25;;;;;;;2.37;1.70;;;11.10;99.90;;;;;;5067676;28;20558;-89
2023/12/14 12:22:51;;;;;;;2.80;2.10;;;11.00;99.90;;;;;;5037465;28;20188;-89
2023/12/14 12:25:16;;;;;;;2.97;2.77;;;11.10;99.90;;;;;;5033642;28;20273;-90
2023/12/14 12:27:44;;;;;;;4.70;3.10;;;11.30;99.90;;;;;;5030735;28;20193;-90
2023/12/14 12:30:10;;;;;;;2.63;2.25;;;11.70;99.90;;;;;;5033131;28;20193;-90
2023/12/14 12:32:35;;;;;;;2.83;2.55;;;11.30;99.90;;;;;;5036180;28;20542;-90
2023/12/14 12:35:01;;;;;;;3.40;2.50;;;11.10;99.90;;;;;;5039646;28;20204;-90
2023/12/14 12:37:27;;;;;;;2.30;2.10;;;11.40;99.90;;;;;;5032467;28;20197;-90
2023/12/14 12:39:52;;;;;;;2.30;2.10;;;10.70;99.90;;;;;;5062865;28;20248;-90
2023/12/14 12:42:18;;;;;;;2.50;2.30;;;10.80;99.90;;;;;;5058636;28;20208;-89
2023/12/14 12:44:44;;;;;;;2.50;2.30;;;10.80;99.90;;;;;;5027769;28;20231;-90
2023/12/14 12:47:09;;;;;;;3.15;2.10;;;10.80;99.90;;;;;;5043162;28;20184;-89
2023/12/14 12:49:35;;;;;;;1.83;1.60;;;10.60;99.90;;;;;;5056461;28;20251;-90
2023/12/14 12:52:00;;;;;;;5.20;2.10;;;10.20;99.90;;;;;;5056825;28;20215;-89